createdAt,value
2019-05-16T00:00:19.620Z,0.00
2019-05-16T00:01:19.649Z,0.00
2019-05-16T00:02:19.582Z,0.00
2019-05-16T00:03:19.572Z,0.00
2019-05-16T00:04:19.566Z,0.00
2019-05-16T00:05:19.565Z,0.00
2019-05-16T00:06:19.537Z,0.00
2019-05-16T00:07:19.539Z,0.00
2019-05-16T00:08:19.521Z,0.00
2019-05-16T00:09:19.522Z,0.00
2019-05-16T00:10:19.492Z,0.00
2019-05-16T00:11:19.497Z,0.00
2019-05-16T00:12:19.483Z,0.00
2019-05-16T00:13:19.469Z,0.00
2019-05-16T00:14:19.450Z,0.00
2019-05-16T00:15:19.441Z,0.00
2019-05-16T00:16:19.429Z,0.00
2019-05-16T00:17:19.418Z,0.00
2019-05-16T00:18:19.440Z,0.00
2019-05-16T00:19:19.392Z,0.00
2019-05-16T00:20:19.381Z,0.00
2019-05-16T00:21:19.369Z,0.00
2019-05-16T00:22:19.363Z,0.00
2019-05-16T00:23:19.349Z,0.00
2019-05-16T00:24:19.354Z,0.00
2019-05-16T00:25:19.325Z,0.00
2019-05-16T00:26:19.855Z,0.00
2019-05-16T00:27:19.303Z,0.00
2019-05-16T00:28:19.342Z,0.00
2019-05-16T00:29:19.301Z,0.00
2019-05-16T00:30:19.266Z,0.00
2019-05-16T00:31:19.261Z,0.00
2019-05-16T00:32:19.268Z,0.00
2019-05-16T00:33:19.234Z,0.00
2019-05-16T00:34:19.249Z,0.00
2019-05-16T00:35:19.229Z,0.00
2019-05-16T00:36:19.210Z,0.00
2019-05-16T00:37:19.189Z,0.00
2019-05-16T00:38:19.203Z,0.00
2019-05-16T00:39:19.166Z,0.00
2019-05-16T00:40:19.169Z,0.00
2019-05-16T00:41:19.145Z,0.00
2019-05-16T00:42:19.137Z,0.00
2019-05-16T00:43:19.121Z,0.00
2019-05-16T00:44:19.113Z,0.00
2019-05-16T00:45:19.141Z,0.00
2019-05-16T00:46:20.029Z,0.00
2019-05-16T00:47:19.089Z,0.00
2019-05-16T00:48:19.073Z,0.00
2019-05-16T00:49:19.055Z,0.00
2019-05-16T00:50:19.049Z,0.00
2019-05-16T00:51:19.049Z,0.00
2019-05-16T00:52:19.026Z,0.00
2019-05-16T00:53:19.015Z,0.00
2019-05-16T00:54:19.017Z,0.00
2019-05-16T00:55:19.017Z,0.00
2019-05-16T00:56:18.980Z,0.00
2019-05-16T00:57:18.987Z,0.00
2019-05-16T00:58:19.195Z,0.00
2019-05-16T00:59:18.978Z,0.00
2019-05-16T01:00:18.949Z,0.00
2019-05-16T01:01:19.187Z,0.00
2019-05-16T01:02:18.946Z,0.00
2019-05-16T01:03:20.138Z,0.00
2019-05-16T01:04:18.893Z,0.00
2019-05-16T01:05:19.255Z,0.00
2019-05-16T01:06:22.668Z,0.00
2019-05-16T01:07:18.853Z,0.00
2019-05-16T01:08:19.229Z,0.00
2019-05-16T01:09:18.969Z,0.00
2019-05-16T01:10:18.833Z,0.00
2019-05-16T01:11:18.840Z,0.00
2019-05-16T01:12:18.802Z,0.00
2019-05-16T01:13:18.806Z,0.00
2019-05-16T01:14:18.779Z,0.00
2019-05-16T01:15:18.765Z,0.00
2019-05-16T01:16:18.913Z,0.00
2019-05-16T01:17:18.757Z,0.00
2019-05-16T01:18:18.932Z,0.00
2019-05-16T01:19:18.801Z,0.00
2019-05-16T01:20:19.353Z,0.00
2019-05-16T01:21:18.850Z,0.00
2019-05-16T01:22:18.811Z,0.00
2019-05-16T01:23:18.678Z,0.00
2019-05-16T01:24:18.919Z,0.00
2019-05-16T01:25:19.532Z,0.00
2019-05-16T01:26:18.785Z,0.00
2019-05-16T01:27:18.656Z,0.00
2019-05-16T01:28:18.628Z,0.00
2019-05-16T01:29:18.925Z,0.00
2019-05-16T01:30:18.878Z,0.00
2019-05-16T01:31:19.316Z,0.00
2019-05-16T01:32:19.107Z,0.00
2019-05-16T01:33:19.287Z,0.00
2019-05-16T01:34:18.573Z,0.00
2019-05-16T01:35:18.950Z,0.00
2019-05-16T01:36:33.018Z,0.00
2019-05-16T01:37:19.540Z,0.00
2019-05-16T01:38:18.516Z,0.00
2019-05-16T01:39:18.497Z,0.00
2019-05-16T01:40:18.999Z,0.00
2019-05-16T01:41:18.498Z,0.00
2019-05-16T01:42:18.552Z,0.00
2019-05-16T01:43:18.454Z,0.00
2019-05-16T01:44:18.512Z,0.00
2019-05-16T01:45:18.893Z,0.00
2019-05-16T01:46:18.417Z,0.00
2019-05-16T01:47:18.470Z,0.00
2019-05-16T01:48:19.083Z,0.00
2019-05-16T01:49:18.873Z,0.00
2019-05-16T01:50:18.406Z,0.00
2019-05-16T01:51:18.628Z,0.00
2019-05-16T01:52:18.357Z,0.00
2019-05-16T01:53:18.357Z,0.00
2019-05-16T01:54:18.329Z,0.00
2019-05-16T01:55:18.773Z,0.00
2019-05-16T01:56:18.318Z,0.00
2019-05-16T01:57:18.301Z,0.00
2019-05-16T01:58:19.883Z,0.00
2019-05-16T01:59:18.299Z,0.00
2019-05-16T02:00:24.921Z,0.00
2019-05-16T02:01:19.377Z,0.00
2019-05-16T02:02:18.439Z,0.00
2019-05-16T02:03:18.980Z,0.00
2019-05-16T02:04:18.524Z,0.00
2019-05-16T02:05:18.825Z,0.00
2019-05-16T02:06:18.525Z,0.00
2019-05-16T02:07:18.788Z,0.00
2019-05-16T02:08:18.403Z,0.00
2019-05-16T02:09:18.919Z,0.00
2019-05-16T02:10:18.316Z,0.00
2019-05-16T02:11:18.320Z,0.00
2019-05-16T02:12:18.572Z,0.00
2019-05-16T02:13:18.244Z,0.00
2019-05-16T02:14:18.109Z,0.00
2019-05-16T02:15:18.365Z,0.00
2019-05-16T02:16:18.802Z,0.00
2019-05-16T02:17:18.521Z,0.00
2019-05-16T02:18:18.371Z,0.00
2019-05-16T02:19:18.806Z,0.00
2019-05-16T02:20:18.203Z,0.00
2019-05-16T02:21:18.370Z,0.00
2019-05-16T02:22:18.070Z,0.00
2019-05-16T02:23:18.725Z,0.00
2019-05-16T02:24:18.343Z,0.00
2019-05-16T02:25:18.614Z,0.00
2019-05-16T02:26:19.106Z,0.00
2019-05-16T02:27:18.316Z,0.00
2019-05-16T02:28:23.040Z,0.00
2019-05-16T02:29:20.534Z,0.00
2019-05-16T02:30:21.304Z,0.00
2019-05-16T02:31:17.928Z,0.00
2019-05-16T02:32:17.932Z,0.00
2019-05-16T02:33:20.876Z,0.00
2019-05-16T02:34:21.443Z,0.00
2019-05-16T02:35:20.683Z,0.00
2019-05-16T02:36:21.286Z,0.00
2019-05-16T02:37:25.960Z,0.00
2019-05-16T02:38:21.100Z,0.00
2019-05-16T02:39:20.950Z,0.00
2019-05-16T02:40:20.818Z,0.00
2019-05-16T02:41:21.312Z,0.00
2019-05-16T02:42:20.980Z,0.00
2019-05-16T02:43:17.788Z,0.00
2019-05-16T02:44:20.858Z,0.00
2019-05-16T02:45:23.882Z,0.00
2019-05-16T02:46:21.554Z,0.00
2019-05-16T02:47:20.713Z,0.00
2019-05-16T02:48:20.916Z,0.00
2019-05-16T02:49:17.732Z,0.00
2019-05-16T02:50:17.723Z,0.00
2019-05-16T02:51:20.943Z,0.00
2019-05-16T02:52:17.687Z,0.00
2019-05-16T02:53:17.681Z,0.00
2019-05-16T02:54:21.462Z,0.00
2019-05-16T02:55:17.665Z,0.00
2019-05-16T02:56:20.928Z,0.00
2019-05-16T02:57:20.928Z,0.00
2019-05-16T02:58:17.630Z,0.00
2019-05-16T02:59:20.366Z,0.00
2019-05-16T03:00:20.778Z,0.00
2019-05-16T03:01:17.603Z,0.00
2019-05-16T03:02:20.284Z,0.00
2019-05-16T03:03:20.971Z,0.00
2019-05-16T03:04:17.567Z,0.00
2019-05-16T03:05:20.606Z,0.00
2019-05-16T03:06:17.529Z,0.00
2019-05-16T03:07:36.729Z,0.00
2019-05-16T03:08:20.928Z,0.00
2019-05-16T03:09:17.496Z,0.00
2019-05-16T03:10:20.123Z,0.00
2019-05-16T03:11:20.752Z,0.00
2019-05-16T03:12:17.462Z,0.00
2019-05-16T03:13:17.464Z,0.00
2019-05-16T03:14:20.978Z,0.00
2019-05-16T03:15:17.426Z,0.00
2019-05-16T03:16:17.425Z,0.00
2019-05-16T03:17:17.413Z,0.00
2019-05-16T03:18:17.390Z,0.00
2019-05-16T03:19:17.382Z,0.00
2019-05-16T03:20:17.370Z,0.00
2019-05-16T03:21:17.399Z,0.00
2019-05-16T03:22:17.347Z,0.00
2019-05-16T03:23:17.355Z,0.00
2019-05-16T03:24:20.413Z,0.00
2019-05-16T03:25:17.310Z,0.00
2019-05-16T03:26:17.305Z,0.00
2019-05-16T03:27:17.310Z,0.00
2019-05-16T03:28:17.282Z,0.00
2019-05-16T03:29:17.278Z,0.00
2019-05-16T03:30:17.418Z,0.00
2019-05-16T03:31:17.247Z,0.00
2019-05-16T03:32:17.250Z,0.00
2019-05-16T03:33:26.349Z,0.00
2019-05-16T03:34:24.827Z,0.00
2019-05-16T03:35:23.819Z,0.00
2019-05-16T03:36:24.320Z,0.00
2019-05-16T03:37:18.179Z,0.00
2019-05-16T03:38:17.181Z,0.00
2019-05-16T03:39:17.161Z,0.00
2019-05-16T03:40:17.155Z,0.00
2019-05-16T03:41:17.143Z,0.00
2019-05-16T03:42:20.249Z,0.00
2019-05-16T03:43:17.178Z,0.00
2019-05-16T03:44:17.127Z,0.00
2019-05-16T03:45:17.088Z,0.00
2019-05-16T03:46:17.093Z,0.00
2019-05-16T03:47:17.083Z,0.00
2019-05-16T03:48:17.057Z,0.00
2019-05-16T03:49:17.060Z,0.00
2019-05-16T03:50:17.045Z,0.00
2019-05-16T03:51:17.025Z,0.00
2019-05-16T03:52:17.014Z,0.00
2019-05-16T03:53:17.001Z,0.00
2019-05-16T03:54:16.989Z,0.00
2019-05-16T03:55:17.005Z,0.00
2019-05-16T03:56:16.994Z,0.00
2019-05-16T03:57:16.964Z,0.00
2019-05-16T03:58:16.942Z,0.00
2019-05-16T03:59:16.938Z,5.62
2019-05-16T04:00:16.956Z,5.62
2019-05-16T04:01:16.925Z,5.62
2019-05-16T04:02:16.906Z,5.62
2019-05-16T04:03:16.891Z,5.62
2019-05-16T04:04:16.890Z,5.62
2019-05-16T04:05:16.870Z,5.62
2019-05-16T04:06:16.853Z,5.62
2019-05-16T04:07:16.859Z,5.62
2019-05-16T04:08:23.726Z,5.62
2019-05-16T04:09:20.857Z,5.62
2019-05-16T04:10:16.813Z,5.62
2019-05-16T04:11:22.121Z,5.62
2019-05-16T04:12:17.790Z,5.62
2019-05-16T04:13:16.818Z,5.62
2019-05-16T04:14:16.786Z,5.62
2019-05-16T04:15:16.758Z,5.62
2019-05-16T04:16:16.774Z,5.62
2019-05-16T04:17:16.735Z,5.62
2019-05-16T04:18:16.733Z,5.62
2019-05-16T04:19:16.726Z,5.62
2019-05-16T04:20:16.736Z,5.62
2019-05-16T04:21:17.706Z,5.62
2019-05-16T04:22:16.696Z,11.25
2019-05-16T04:23:16.665Z,11.25
2019-05-16T04:24:16.673Z,11.25
2019-05-16T04:25:16.646Z,11.25
2019-05-16T04:26:16.654Z,11.25
2019-05-16T04:27:16.619Z,11.25
2019-05-16T04:28:16.618Z,16.88
2019-05-16T04:29:16.608Z,16.88
2019-05-16T04:30:16.596Z,16.88
2019-05-16T04:31:16.582Z,16.88
2019-05-16T04:32:16.577Z,16.88
2019-05-16T04:33:16.557Z,16.88
2019-05-16T04:34:16.574Z,16.88
2019-05-16T04:35:16.536Z,22.50
2019-05-16T04:36:16.521Z,22.50
2019-05-16T04:37:16.526Z,22.50
2019-05-16T04:38:31.546Z,28.12
2019-05-16T04:39:20.612Z,28.12
2019-05-16T04:40:16.486Z,33.75
2019-05-16T04:41:16.466Z,33.75
2019-05-16T04:42:16.450Z,33.75
2019-05-16T04:43:16.445Z,39.38
2019-05-16T04:44:16.435Z,39.38
2019-05-16T04:45:16.428Z,39.38
2019-05-16T04:46:16.426Z,39.38
2019-05-16T04:47:16.398Z,45.00
2019-05-16T04:48:16.390Z,45.00
2019-05-16T04:49:16.406Z,45.00
2019-05-16T04:50:16.390Z,50.62
2019-05-16T04:51:16.354Z,50.62
2019-05-16T04:52:16.346Z,50.62
2019-05-16T04:53:16.333Z,50.62
2019-05-16T04:54:16.317Z,50.62
2019-05-16T04:55:16.313Z,50.62
2019-05-16T04:56:16.337Z,50.62
2019-05-16T04:57:16.289Z,50.62
2019-05-16T04:58:16.278Z,56.25
2019-05-16T04:59:17.065Z,56.25
2019-05-16T05:00:16.250Z,56.25
2019-05-16T05:01:16.278Z,56.25
2019-05-16T05:02:16.258Z,56.25
2019-05-16T05:03:16.242Z,56.25
2019-05-16T05:04:16.205Z,56.25
2019-05-16T05:05:16.200Z,56.25
2019-05-16T05:06:16.186Z,56.25
2019-05-16T05:07:16.191Z,56.25
2019-05-16T05:08:16.176Z,56.25
2019-05-16T05:09:16.158Z,56.25
2019-05-16T05:10:16.162Z,56.25
2019-05-16T05:11:16.137Z,50.62
2019-05-16T05:12:16.133Z,50.62
2019-05-16T05:13:16.137Z,50.62
2019-05-16T05:14:16.093Z,50.62
2019-05-16T05:15:16.085Z,45.00
2019-05-16T05:16:16.073Z,45.00
2019-05-16T05:17:16.073Z,39.38
2019-05-16T05:18:16.078Z,39.38
2019-05-16T05:19:16.057Z,39.38
2019-05-16T05:20:16.035Z,39.38
2019-05-16T05:21:16.018Z,33.75
2019-05-16T05:22:16.041Z,33.75
2019-05-16T05:23:15.997Z,33.75
2019-05-16T05:24:16.001Z,33.75
2019-05-16T05:25:15.973Z,28.12
2019-05-16T05:26:15.970Z,28.12
2019-05-16T05:27:15.957Z,28.12
2019-05-16T05:28:15.940Z,28.12
2019-05-16T05:29:16.001Z,28.12
2019-05-16T05:30:15.926Z,33.75
2019-05-16T05:31:15.907Z,33.75
2019-05-16T05:32:15.893Z,33.75
2019-05-16T05:33:15.885Z,39.38
2019-05-16T05:34:15.893Z,39.38
2019-05-16T05:35:15.876Z,45.00
2019-05-16T05:36:15.861Z,50.62
2019-05-16T05:37:15.843Z,50.62
2019-05-16T05:38:15.841Z,56.25
2019-05-16T05:39:15.822Z,56.25
2019-05-16T05:40:15.821Z,61.88
2019-05-16T05:41:15.814Z,61.88
2019-05-16T05:42:15.781Z,56.25
2019-05-16T05:43:15.769Z,56.25
2019-05-16T05:44:15.765Z,56.25
2019-05-16T05:45:15.749Z,56.25
2019-05-16T05:46:15.745Z,56.25
2019-05-16T05:47:15.745Z,56.25
2019-05-16T05:48:15.712Z,56.25
2019-05-16T05:49:15.705Z,50.62
2019-05-16T05:50:15.696Z,45.00
2019-05-16T05:51:15.684Z,45.00
2019-05-16T05:52:15.676Z,39.38
2019-05-16T05:53:15.676Z,39.38
2019-05-16T05:54:15.665Z,39.38
2019-05-16T05:55:15.662Z,39.38
2019-05-16T05:56:15.630Z,33.75
2019-05-16T05:57:15.617Z,33.75
2019-05-16T05:58:15.615Z,28.12
2019-05-16T05:59:15.608Z,28.12
2019-05-16T06:00:17.565Z,28.12
2019-05-16T06:01:15.577Z,28.12
2019-05-16T06:02:15.566Z,28.12
2019-05-16T06:03:15.550Z,28.12
2019-05-16T06:04:15.555Z,33.75
2019-05-16T06:05:15.533Z,39.38
2019-05-16T06:06:15.517Z,45.00
2019-05-16T06:07:15.505Z,50.62
2019-05-16T06:08:15.497Z,50.62
2019-05-16T06:09:26.152Z,56.25
2019-05-16T06:10:16.488Z,61.88
2019-05-16T06:11:15.465Z,61.88
2019-05-16T06:12:15.503Z,73.12
2019-05-16T06:13:15.440Z,84.38
2019-05-16T06:14:15.431Z,95.62
2019-05-16T06:15:15.448Z,106.88
2019-05-16T06:16:15.409Z,106.88
2019-05-16T06:17:15.393Z,118.12
2019-05-16T06:18:15.428Z,123.75
2019-05-16T06:19:15.372Z,118.12
2019-05-16T06:20:15.361Z,118.12
2019-05-16T06:21:15.389Z,118.12
2019-05-16T06:22:15.341Z,118.12
2019-05-16T06:23:15.341Z,123.75
2019-05-16T06:24:16.335Z,118.12
2019-05-16T06:25:15.358Z,118.12
2019-05-16T06:26:15.312Z,118.12
2019-05-16T06:27:15.281Z,118.12
2019-05-16T06:28:15.277Z,118.12
2019-05-16T06:29:15.287Z,112.50
2019-05-16T06:30:15.251Z,106.88
2019-05-16T06:31:15.245Z,106.88
2019-05-16T06:32:15.229Z,106.88
2019-05-16T06:33:15.222Z,101.25
2019-05-16T06:34:15.506Z,95.62
2019-05-16T06:35:15.213Z,90.00
2019-05-16T06:36:15.181Z,84.38
2019-05-16T06:37:15.168Z,84.38
2019-05-16T06:38:15.192Z,90.00
2019-05-16T06:39:15.153Z,90.00
2019-05-16T06:40:15.148Z,84.38
2019-05-16T06:41:15.141Z,84.38
2019-05-16T06:42:15.120Z,84.38
2019-05-16T06:43:15.113Z,84.38
2019-05-16T06:44:15.088Z,90.00
2019-05-16T06:45:15.089Z,95.62
2019-05-16T06:46:15.073Z,95.62
2019-05-16T06:47:19.761Z,101.25
2019-05-16T06:48:16.044Z,101.25
2019-05-16T06:49:15.137Z,101.25
2019-05-16T06:50:15.032Z,101.25
2019-05-16T06:51:15.017Z,95.62
2019-05-16T06:52:15.009Z,95.62
2019-05-16T06:53:15.001Z,101.25
2019-05-16T06:54:14.976Z,101.25
2019-05-16T06:55:14.988Z,106.88
2019-05-16T06:56:14.961Z,118.12
2019-05-16T06:57:14.952Z,135.00
2019-05-16T06:58:14.944Z,157.50
2019-05-16T06:59:14.922Z,168.75
2019-05-16T07:00:14.929Z,174.38
2019-05-16T07:01:14.904Z,174.38
2019-05-16T07:02:26.786Z,168.75
2019-05-16T07:03:15.900Z,168.75
2019-05-16T07:04:14.944Z,163.12
2019-05-16T07:05:14.871Z,157.50
2019-05-16T07:06:37.858Z,157.50
2019-05-16T07:07:15.832Z,151.88
2019-05-16T07:08:14.821Z,146.25
2019-05-16T07:09:14.902Z,140.62
2019-05-16T07:10:14.800Z,135.00
2019-05-16T07:11:14.812Z,129.38
2019-05-16T07:12:14.780Z,123.75
2019-05-16T07:13:14.769Z,118.12
2019-05-16T07:14:14.776Z,112.50
2019-05-16T07:15:14.759Z,106.88
2019-05-16T07:16:14.736Z,106.88
2019-05-16T07:17:14.732Z,106.88
2019-05-16T07:18:14.733Z,112.50
2019-05-16T07:19:14.725Z,123.75
2019-05-16T07:20:14.696Z,140.62
2019-05-16T07:21:14.680Z,157.50
2019-05-16T07:22:14.669Z,163.12
2019-05-16T07:23:14.656Z,163.12
2019-05-16T07:24:16.985Z,168.75
2019-05-16T07:25:14.644Z,180.00
2019-05-16T07:26:14.643Z,191.25
2019-05-16T07:27:14.613Z,196.88
2019-05-16T07:28:14.609Z,202.50
2019-05-16T07:29:14.590Z,202.50
2019-05-16T07:30:14.579Z,208.12
2019-05-16T07:31:18.586Z,208.12
2019-05-16T07:32:15.618Z,208.12
2019-05-16T07:33:14.584Z,208.12
2019-05-16T07:34:14.790Z,213.75
2019-05-16T07:35:14.533Z,236.25
2019-05-16T07:36:15.999Z,253.12
2019-05-16T07:37:14.505Z,258.75
2019-05-16T07:38:14.542Z,253.12
2019-05-16T07:39:14.504Z,241.88
2019-05-16T07:40:19.650Z,230.62
2019-05-16T07:41:15.514Z,219.38
2019-05-16T07:42:14.450Z,219.38
2019-05-16T07:43:14.457Z,219.38
2019-05-16T07:44:14.423Z,219.38
2019-05-16T07:45:14.420Z,219.38
2019-05-16T07:46:14.399Z,219.38
2019-05-16T07:47:14.388Z,219.38
2019-05-16T07:48:14.381Z,213.75
2019-05-16T07:49:14.364Z,208.12
2019-05-16T07:50:14.377Z,213.75
2019-05-16T07:51:14.344Z,202.50
2019-05-16T07:52:14.334Z,196.88
2019-05-16T07:53:14.320Z,185.62
2019-05-16T07:54:14.320Z,180.00
2019-05-16T07:55:14.301Z,174.38
2019-05-16T07:56:14.293Z,174.38
2019-05-16T07:57:19.536Z,174.38
2019-05-16T07:58:15.289Z,174.38
2019-05-16T07:59:14.248Z,180.00
2019-05-16T08:00:14.241Z,180.00
2019-05-16T08:01:14.231Z,180.00
2019-05-16T08:02:14.217Z,180.00
2019-05-16T08:03:14.213Z,180.00
2019-05-16T08:04:14.204Z,185.62
2019-05-16T08:05:14.185Z,196.88
2019-05-16T08:06:14.189Z,208.12
2019-05-16T08:07:14.157Z,219.38
2019-05-16T08:08:14.153Z,213.75
2019-05-16T08:09:14.165Z,219.38
2019-05-16T08:10:14.137Z,230.62
2019-05-16T08:11:14.118Z,247.50
2019-05-16T08:12:14.108Z,258.75
2019-05-16T08:13:17.535Z,264.38
2019-05-16T08:14:14.081Z,258.75
2019-05-16T08:15:14.081Z,258.75
2019-05-16T08:16:14.073Z,253.12
2019-05-16T08:17:14.048Z,247.50
2019-05-16T08:18:14.032Z,247.50
2019-05-16T08:19:14.024Z,247.50
2019-05-16T08:20:14.015Z,247.50
2019-05-16T08:22:14.990Z,258.75
2019-05-16T08:23:13.980Z,258.75
2019-05-16T08:24:14.960Z,258.75
2019-05-16T08:25:13.964Z,258.75
2019-05-16T08:26:13.950Z,258.75
2019-05-16T08:27:13.960Z,258.75
2019-05-16T08:28:13.969Z,258.75
2019-05-16T08:29:13.913Z,258.75
2019-05-16T08:30:13.905Z,264.38
2019-05-16T08:31:13.903Z,258.75
2019-05-16T08:32:13.902Z,264.38
2019-05-16T08:33:13.881Z,264.38
2019-05-16T08:34:13.868Z,264.38
2019-05-16T08:35:13.848Z,258.75
2019-05-16T08:36:13.842Z,264.38
2019-05-16T08:37:34.113Z,270.00
2019-05-16T08:38:14.813Z,264.38
2019-05-16T08:39:13.824Z,264.38
2019-05-16T08:40:13.814Z,258.75
2019-05-16T08:41:17.176Z,258.75
2019-05-16T08:42:13.774Z,253.12
2019-05-16T08:43:13.753Z,247.50
2019-05-16T08:44:13.765Z,236.25
2019-05-16T08:45:13.766Z,236.25
2019-05-16T08:46:13.721Z,241.88
2019-05-16T08:47:13.709Z,247.50
2019-05-16T08:48:13.702Z,247.50
2019-05-16T08:49:13.692Z,253.12
2019-05-16T08:50:04.937Z,253.12
2019-05-16T08:50:14.771Z,241.88
2019-05-16T08:51:13.673Z,236.25
2019-05-16T08:52:13.661Z,230.62
2019-05-16T08:53:13.934Z,225.00
2019-05-16T08:54:13.757Z,219.38
2019-05-16T08:55:13.810Z,208.12
2019-05-16T08:56:13.621Z,202.50
2019-05-16T08:57:26.026Z,208.12
2019-05-16T08:58:14.585Z,213.75
2019-05-16T08:59:13.710Z,219.38
2019-05-16T09:01:15.520Z,236.25
2019-05-16T09:02:13.544Z,247.50
2019-05-16T09:03:13.543Z,236.25
2019-05-16T09:04:13.532Z,230.62
2019-05-16T09:05:14.052Z,225.00
2019-05-16T09:06:13.500Z,225.00
2019-05-16T09:07:13.500Z,225.00
2019-05-16T09:08:13.518Z,219.38
2019-05-16T09:09:39.883Z,219.38
2019-05-16T09:10:25.131Z,225.00
2019-05-16T09:10:45.692Z,230.62
2019-05-16T09:11:31.220Z,230.62
2019-05-16T09:12:16.925Z,219.38
2019-05-16T09:13:13.424Z,225.00
2019-05-16T09:14:13.501Z,230.62
2019-05-16T09:15:13.401Z,230.62
2019-05-16T09:16:13.420Z,230.62
2019-05-16T09:17:13.391Z,236.25
2019-05-16T09:18:13.432Z,230.62
2019-05-16T09:19:13.393Z,225.00
2019-05-16T09:20:13.352Z,219.38
2019-05-16T09:21:13.341Z,202.50
2019-05-16T09:22:13.498Z,191.25
2019-05-16T09:23:13.313Z,180.00
2019-05-16T09:24:13.312Z,174.38
2019-05-16T09:25:13.285Z,174.38
2019-05-16T09:26:19.470Z,191.25
2019-05-16T09:27:14.264Z,208.12
2019-05-16T09:28:13.264Z,219.38
2019-05-16T09:29:13.250Z,225.00
2019-05-16T09:30:13.249Z,241.88
2019-05-16T09:31:13.224Z,253.12
2019-05-16T09:32:20.331Z,281.25
2019-05-16T09:33:14.197Z,309.38
2019-05-16T09:34:13.223Z,326.25
2019-05-16T09:35:13.178Z,326.25
2019-05-16T09:36:13.203Z,298.12
2019-05-16T09:37:13.158Z,275.62
2019-05-16T09:38:13.187Z,253.12
2019-05-16T09:39:13.157Z,247.50
2019-05-16T09:40:13.117Z,236.25
2019-05-16T09:41:13.115Z,230.62
2019-05-16T09:42:13.096Z,225.00
2019-05-16T09:43:13.084Z,219.38
2019-05-16T09:44:13.074Z,230.62
2019-05-16T09:45:13.073Z,253.12
2019-05-16T09:46:13.053Z,258.75
2019-05-16T09:47:13.040Z,241.88
2019-05-16T09:48:13.041Z,219.38
2019-05-16T09:49:23.185Z,208.12
2019-05-16T09:50:14.027Z,174.38
2019-05-16T09:51:13.034Z,151.88
2019-05-16T09:52:12.988Z,135.00
2019-05-16T09:53:13.048Z,129.38
2019-05-16T09:54:12.977Z,135.00
2019-05-16T09:55:12.964Z,135.00
2019-05-16T09:56:12.944Z,140.62
2019-05-16T09:57:12.940Z,163.12
2019-05-16T09:58:12.916Z,185.62
2019-05-16T09:59:12.912Z,213.75
2019-05-16T10:00:12.939Z,230.62
2019-05-16T10:01:12.888Z,230.62
2019-05-16T10:02:12.939Z,241.88
2019-05-16T10:03:12.891Z,253.12
2019-05-16T10:04:12.864Z,258.75
2019-05-16T10:05:13.770Z,258.75
2019-05-16T10:06:12.828Z,270.00
2019-05-16T10:07:12.872Z,270.00
2019-05-16T10:08:12.804Z,270.00
2019-05-16T10:09:12.796Z,275.62
2019-05-16T10:10:12.836Z,298.12
2019-05-16T10:11:12.776Z,320.62
2019-05-16T10:12:15.500Z,326.25
2019-05-16T10:13:13.762Z,348.75
2019-05-16T10:14:12.740Z,348.75
2019-05-16T10:15:12.760Z,360.00
2019-05-16T10:16:12.720Z,337.50
2019-05-16T10:17:12.708Z,303.75
2019-05-16T10:18:12.701Z,270.00
2019-05-16T10:19:12.686Z,247.50
2019-05-16T10:20:12.672Z,241.88
2019-05-16T10:21:12.660Z,236.25
2019-05-16T10:22:12.656Z,225.00
2019-05-16T10:23:14.826Z,219.38
2019-05-16T10:24:12.642Z,208.12
2019-05-16T10:25:12.623Z,180.00
2019-05-16T10:26:12.619Z,151.88
2019-05-16T10:27:12.596Z,129.38
2019-05-16T10:28:12.600Z,129.38
2019-05-16T10:29:12.588Z,129.38
2019-05-16T10:30:12.567Z,135.00
2019-05-16T10:31:12.556Z,146.25
2019-05-16T10:32:12.536Z,151.88
2019-05-16T10:33:12.544Z,157.50
2019-05-16T10:34:12.514Z,157.50
2019-05-16T10:35:12.516Z,163.12
2019-05-16T10:36:12.494Z,163.12
2019-05-16T10:37:12.491Z,157.50
2019-05-16T10:38:12.469Z,140.62
2019-05-16T10:39:12.461Z,123.75
2019-05-16T10:40:12.453Z,118.12
2019-05-16T10:41:12.456Z,112.50
2019-05-16T10:42:24.929Z,112.50
2019-05-16T10:43:13.418Z,112.50
2019-05-16T10:44:12.408Z,118.12
2019-05-16T10:45:12.394Z,135.00
2019-05-16T10:46:12.388Z,163.12
2019-05-16T10:47:12.380Z,185.62
2019-05-16T10:48:12.352Z,208.12
2019-05-16T10:49:12.352Z,219.38
2019-05-16T10:50:12.336Z,219.38
2019-05-16T10:51:12.324Z,225.00
2019-05-16T10:52:12.328Z,219.38
2019-05-16T10:53:28.367Z,202.50
2019-05-16T10:54:14.230Z,185.62
2019-05-16T10:55:12.311Z,174.38
2019-05-16T10:56:12.303Z,174.38
2019-05-16T10:57:12.363Z,180.00
2019-05-16T10:58:12.264Z,191.25
2019-05-16T10:59:51.222Z,213.75
2019-05-16T11:00:26.493Z,230.62
2019-05-16T11:01:24.542Z,247.50
2019-05-16T11:02:13.243Z,270.00
2019-05-16T11:03:12.188Z,270.00
2019-05-16T11:04:27.960Z,275.62
2019-05-16T11:05:24.915Z,281.25
2019-05-16T11:06:24.633Z,286.88
2019-05-16T11:07:13.144Z,286.88
2019-05-16T11:08:12.144Z,286.88
2019-05-16T11:09:12.124Z,281.25
2019-05-16T11:10:12.190Z,286.88
2019-05-16T11:11:12.104Z,292.50
2019-05-16T11:12:12.088Z,315.00
2019-05-16T11:13:12.093Z,326.25
2019-05-16T11:14:12.066Z,331.88
2019-05-16T11:15:12.065Z,337.50
2019-05-16T11:16:12.047Z,337.50
2019-05-16T11:17:13.654Z,303.75
2019-05-16T11:18:12.020Z,281.25
2019-05-16T11:19:17.225Z,264.38
2019-05-16T11:20:13.071Z,247.50
2019-05-16T11:21:12.016Z,225.00
2019-05-16T11:22:11.987Z,213.75
2019-05-16T11:23:11.968Z,196.88
2019-05-16T11:24:13.349Z,185.62
2019-05-16T11:25:24.198Z,180.00
2019-05-16T11:26:12.936Z,174.38
2019-05-16T11:27:11.941Z,185.62
2019-05-16T11:28:11.921Z,196.88
2019-05-16T11:29:11.904Z,196.88
2019-05-16T11:30:11.941Z,185.62
2019-05-16T11:31:11.881Z,168.75
2019-05-16T11:32:11.864Z,146.25
2019-05-16T11:33:11.916Z,135.00
2019-05-16T11:34:11.840Z,129.38
2019-05-16T11:35:11.852Z,140.62
2019-05-16T11:36:12.975Z,151.88
2019-05-16T11:37:11.808Z,157.50
2019-05-16T11:38:11.813Z,168.75
2019-05-16T11:39:11.789Z,180.00
2019-05-16T11:40:11.792Z,196.88
2019-05-16T11:41:11.766Z,213.75
2019-05-16T11:42:11.772Z,225.00
2019-05-16T11:43:18.304Z,236.25
2019-05-16T11:44:12.740Z,236.25
2019-05-16T11:45:11.742Z,241.88
2019-05-16T11:46:11.708Z,258.75
2019-05-16T11:47:11.693Z,253.12
2019-05-16T11:48:11.708Z,241.88
2019-05-16T11:49:11.683Z,241.88
2019-05-16T11:50:11.684Z,253.12
2019-05-16T11:51:11.656Z,253.12
2019-05-16T11:52:11.641Z,264.38
2019-05-16T11:53:11.628Z,247.50
2019-05-16T11:54:11.616Z,230.62
2019-05-16T11:55:11.617Z,219.38
2019-05-16T11:56:11.608Z,219.38
2019-05-16T11:57:11.584Z,230.62
2019-05-16T11:58:11.628Z,241.88
2019-05-16T11:59:11.560Z,264.38
2019-05-16T12:00:11.552Z,275.62
2019-05-16T12:01:11.565Z,270.00
2019-05-16T12:02:11.552Z,264.38
2019-05-16T12:03:11.516Z,270.00
2019-05-16T12:04:11.508Z,298.12
2019-05-16T12:05:11.496Z,326.25
2019-05-16T12:06:11.485Z,326.25
2019-05-16T12:07:11.497Z,315.00
2019-05-16T12:08:11.473Z,315.00
2019-05-16T12:09:11.454Z,331.88
2019-05-16T12:10:11.440Z,331.88
2019-05-16T12:11:11.433Z,315.00
2019-05-16T12:12:11.428Z,303.75
2019-05-16T12:13:24.172Z,281.25
2019-05-16T12:14:12.400Z,236.25
2019-05-16T12:15:11.384Z,196.88
2019-05-16T12:16:11.372Z,174.38
2019-05-16T12:17:11.372Z,174.38
2019-05-16T12:18:11.344Z,180.00
2019-05-16T12:19:11.374Z,196.88
2019-05-16T12:20:11.384Z,191.25
2019-05-16T12:21:11.324Z,174.38
2019-05-16T12:22:11.304Z,185.62
2019-05-16T12:23:11.316Z,191.25
2019-05-16T12:24:11.305Z,196.88
2019-05-16T12:25:11.272Z,230.62
2019-05-16T12:26:11.308Z,258.75
2019-05-16T12:27:11.261Z,281.25
2019-05-16T12:28:11.249Z,281.25
2019-05-16T12:29:11.236Z,281.25
2019-05-16T12:30:13.656Z,258.75
2019-05-16T12:31:11.205Z,236.25
2019-05-16T12:32:11.240Z,230.62
2019-05-16T12:33:11.192Z,236.25
2019-05-16T12:34:11.177Z,230.62
2019-05-16T12:35:11.156Z,219.38
2019-05-16T12:36:11.145Z,208.12
2019-05-16T12:37:11.160Z,225.00
2019-05-16T12:38:11.143Z,241.88
2019-05-16T12:39:11.113Z,236.25
2019-05-16T12:40:11.108Z,225.00
2019-05-16T12:41:11.109Z,225.00
2019-05-16T12:42:11.082Z,208.12
2019-05-16T12:43:11.080Z,191.25
2019-05-16T12:44:11.060Z,185.62
2019-05-16T12:45:11.060Z,174.38
2019-05-16T12:46:11.044Z,180.00
2019-05-16T12:47:11.024Z,185.62
2019-05-16T12:48:11.020Z,202.50